Time;durP1;ratioP1;P1;durP2;ratioP2;P2;SDS_P1;SDS_P2;PMS_P1;PMS_P2;Temp;Humidity;BMP_temperature;BMP_pressure;BME280_temperature;BME280_humidity;BME280_pressure;Samples;Min_cycle;Max_cycle;Signal;HPM_P1;HPM_P2
2023/09/05 04:43:11;;;;;;;6.90;3.40;;;;;;;16.57;99.79;100611.79;113018;1249;22988;-47
2023/09/05 04:45:38;;;;;;;4.90;3.40;;;;;;;16.66;99.33;100606.33;112938;1242;22377;-48
2023/09/05 04:48:05;;;;;;;7.70;3.60;;;;;;;16.75;98.85;100610.93;112935;1248;23220;-41
2023/09/05 04:50:33;;;;;;;10.50;3.70;;;;;;;16.85;98.43;100605.27;112974;1249;23213;-41
2023/09/05 04:53:03;;;;;;;5.80;3.70;;;;;;;16.94;97.91;100602.77;112825;1249;23111;-41
2023/09/05 04:55:30;;;;;;;5.60;3.60;;;;;;;17.03;97.66;100601.88;113029;1246;22386;-41
2023/09/05 04:57:57;;;;;;;10.40;4.10;;;;;;;17.13;96.78;100601.48;112977;1249;22420;-43
2023/09/05 05:00:25;;;;;;;5.70;3.10;;;;;;;17.21;96.16;100603.24;112968;1249;23651;-39
2023/09/05 05:02:52;;;;;;;7.50;4.30;;;;;;;17.30;95.57;100605.52;112983;1249;22365;-48
2023/09/05 05:05:19;;;;;;;9.90;3.60;;;;;;;17.39;95.11;100606.00;112922;1237;22457;-47
2023/09/05 05:07:46;;;;;;;6.00;3.40;;;;;;;17.50;94.70;100604.88;112897;1247;22370;-47
2023/09/05 05:10:12;;;;;;;6.30;3.40;;;;;;;17.62;94.26;100606.71;112918;1241;23119;-41
2023/09/05 05:12:40;;;;;;;8.10;3.80;;;;;;;17.73;93.70;100606.45;112803;1237;22374;-41
2023/09/05 05:15:08;;;;;;;9.90;3.30;;;;;;;17.84;92.62;100604.09;112835;1246;22382;-41
2023/09/05 05:17:36;;;;;;;6.30;3.70;;;;;;;17.92;92.03;100603.17;112898;1249;22360;-49
2023/09/05 05:20:05;;;;;;;9.30;4.10;;;;;;;18.00;91.72;100602.44;112821;1243;23363;-47
2023/09/05 05:22:32;;;;;;;7.00;3.90;;;;;;;18.09;90.94;100598.69;112762;1240;22386;-47
2023/09/05 05:24:59;;;;;;;7.00;4.30;;;;;;;18.17;90.52;100601.46;112700;1247;22433;-47
2023/09/05 05:27:26;;;;;;;8.80;4.00;;;;;;;18.25;89.95;100604.25;112612;1244;22459;-48
2023/09/05 05:30:05;;;;;;;6.60;3.40;;;;;;;18.31;89.29;100600.37;112541;1237;22262;-47
2023/09/05 05:32:38;;;;;;;11.80;3.80;;;;;;;18.34;88.90;100603.84;112518;1249;22161;-48
2023/09/05 05:35:24;;;;;;;8.10;3.40;;;;;;;18.40;88.85;100601.22;112590;1237;22231;-41
2023/09/05 05:37:51;;;;;;;9.70;3.70;;;;;;;18.47;88.56;100600.66;112636;1249;22402;-42
2023/09/05 05:40:17;;;;;;;6.50;3.50;;;;;;;18.52;88.07;100599.08;112696;1246;22478;-41
2023/09/05 05:42:44;;;;;;;8.00;3.90;;;;;;;18.58;87.90;100601.41;112529;1249;23354;-48
2023/09/05 05:45:11;;;;;;;8.10;3.50;;;;;;;18.63;87.56;100606.58;112709;1246;22328;-48
2023/09/05 05:47:38;;;;;;;6.60;3.80;;;;;;;18.66;87.27;100613.36;112677;1246;23315;-48
2023/09/05 05:50:06;;;;;;;7.20;4.00;;;;;;;18.73;87.20;100615.50;112761;1245;22442;-48
2023/09/05 05:52:33;;;;;;;9.60;4.10;;;;;;;18.80;86.82;100615.13;112823;1247;22386;-41
2023/09/05 05:54:59;;;;;;;6.30;3.80;;;;;;;18.85;86.83;100619.02;112856;1237;22375;-42
2023/09/05 05:57:26;;;;;;;11.10;3.80;;;;;;;18.97;86.65;100615.34;112874;1249;23168;-42
2023/09/05 05:59:53;;;;;;;4.40;3.50;;;;;;;19.08;86.39;100620.64;112923;1239;22433;-48
2023/09/05 06:02:19;;;;;;;5.50;3.40;;;;;;;19.21;85.90;100617.09;112914;1246;22224;-48
2023/09/05 06:04:46;;;;;;;6.90;4.00;;;;;;;19.27;85.21;100623.44;112943;1237;22153;-48
2023/09/05 06:07:13;;;;;;;6.50;4.00;;;;;;;19.30;84.73;100619.64;112888;1239;22367;-48
2023/09/05 06:09:40;;;;;;;12.30;4.70;;;;;;;19.35;84.68;100620.02;112945;1246;23031;-41
2023/09/05 06:12:07;;;;;;;6.30;4.00;;;;;;;19.45;84.64;100621.13;112789;1240;22725;-42
2023/09/05 06:14:34;;;;;;;7.70;4.60;;;;;;;19.54;84.15;100623.86;112966;1249;22390;-48
2023/09/05 06:17:01;;;;;;;8.20;4.80;;;;;;;19.59;83.96;100626.71;112890;1236;23112;-42
2023/09/05 06:19:30;;;;;;;7.70;4.00;;;;;;;19.65;83.64;100627.94;112418;1249;22376;-48
2023/09/05 06:21:58;;;;;;;6.40;4.40;;;;;;;19.72;83.79;100626.83;112692;1246;23009;-48
2023/09/05 06:24:37;;;;;;;8.70;5.10;;;;;;;19.86;83.98;100627.09;112776;1249;22351;-48
2023/09/05 06:27:11;;;;;;;9.30;5.20;;;;;;;20.04;83.15;100629.14;112289;1249;22423;-41
2023/09/05 06:29:38;;;;;;;7.40;4.30;;;;;;;20.12;82.66;100631.86;112593;1249;22893;-48
2023/09/05 06:32:05;;;;;;;9.60;5.20;;;;;;;20.20;82.49;100631.42;112769;1240;22510;-48
2023/09/05 06:34:32;;;;;;;6.10;3.90;;;;;;;20.29;81.85;100632.36;112795;1246;22269;-41
2023/09/05 06:36:59;;;;;;;8.40;4.50;;;;;;;20.40;81.40;100633.20;112790;1237;22386;-48
2023/09/05 06:39:25;;;;;;;8.60;4.70;;;;;;;20.54;80.67;100630.27;112711;1235;22415;-48
2023/09/05 06:41:52;;;;;;;8.60;3.90;;;;;;;20.67;80.29;100630.69;112697;1239;22835;-49
2023/09/05 06:44:28;;;;;;;13.30;4.50;;;;;;;20.81;79.68;100631.77;112492;1241;22773;-48
2023/09/05 06:46:55;;;;;;;6.50;4.20;;;;;;;20.91;79.13;100635.84;112660;1237;23093;-49
2023/09/05 06:49:22;;;;;;;6.70;4.20;;;;;;;20.96;78.34;100639.16;112779;1238;22355;-48
2023/09/05 06:51:49;;;;;;;7.30;4.10;;;;;;;20.95;78.42;100635.83;112870;1248;22404;-41
2023/09/05 06:54:15;;;;;;;13.60;5.20;;;;;;;21.02;78.54;100642.14;112869;1237;22346;-42
2023/09/05 06:56:42;;;;;;;6.70;4.00;;;;;;;21.11;78.12;100642.16;112847;1238;22371;-42
2023/09/05 06:59:16;;;;;;;7.10;4.60;;;;;;;21.19;77.89;100643.29;112853;1240;22381;-42
2023/09/05 07:01:44;;;;;;;5.90;4.80;;;;;;;21.27;77.33;100644.23;112707;1249;23435;-48
2023/09/05 07:04:11;;;;;;;8.90;4.50;;;;;;;21.34;76.80;100646.99;112923;1239;22352;-42
2023/09/05 07:06:39;;;;;;;6.50;4.80;;;;;;;21.40;76.60;100647.29;112814;1236;22501;-41
2023/09/05 07:09:06;;;;;;;6.10;3.90;;;;;;;21.44;76.19;100648.91;112751;1241;22364;-42
2023/09/05 07:11:34;;;;;;;6.40;4.50;;;;;;;21.52;76.31;100648.05;112850;1248;22369;-40
2023/09/05 07:14:00;;;;;;;9.60;4.90;;;;;;;21.64;76.02;100653.63;112668;1246;23089;-41
2023/09/05 07:16:27;;;;;;;10.90;5.50;;;;;;;21.68;75.48;100650.41;112566;1249;23081;-41
2023/09/05 07:18:54;;;;;;;17.40;5.70;;;;;;;21.73;75.15;100649.14;112648;1249;22360;-47
2023/09/05 07:21:21;;;;;;;12.10;5.20;;;;;;;21.82;75.30;100649.85;112677;1245;22372;-47
2023/09/05 07:23:48;;;;;;;18.70;5.30;;;;;;;21.97;75.10;100653.15;112759;1246;23157;-41
2023/09/05 07:26:15;;;;;;;9.60;4.80;;;;;;;22.10;74.59;100651.90;112772;1240;22364;-41
2023/09/05 07:28:43;;;;;;;9.30;5.30;;;;;;;22.20;74.33;100647.04;112817;1236;23360;-41
2023/09/05 07:31:17;;;;;;;6.50;4.60;;;;;;;22.32;73.86;100641.55;112713;1248;22405;-41
2023/09/05 07:33:48;;;;;;;10.10;5.40;;;;;;;22.39;73.43;100635.58;112442;1249;22398;-47
2023/09/05 07:36:20;;;;;;;10.40;4.90;;;;;;;22.45;72.95;100629.11;112380;1249;22369;-40
2023/09/05 07:38:46;;;;;;;17.60;5.70;;;;;;;22.49;72.84;100626.80;112833;1249;22358;-46
2023/09/05 07:41:13;;;;;;;10.20;5.80;;;;;;;22.55;72.87;100635.42;112829;1237;22228;-47
2023/09/05 07:43:40;;;;;;;9.70;6.10;;;;;;;22.60;72.27;100636.77;112748;1247;22279;-40
2023/09/05 07:46:07;;;;;;;9.60;5.40;;;;;;;22.63;72.14;100640.77;112769;1249;22390;-40
2023/09/05 07:48:34;;;;;;;12.50;5.80;;;;;;;22.63;71.81;100637.02;112763;1247;22446;-41
2023/09/05 07:51:03;;;;;;;12.70;6.30;;;;;;;22.63;71.87;100637.73;112534;1249;22630;-47
2023/09/05 07:53:32;;;;;;;8.30;6.20;;;;;;;22.65;71.96;100633.73;112898;1239;22485;-47
2023/09/05 07:55:59;;;;;;;17.90;8.20;;;;;;;22.68;71.22;100637.13;112934;1237;22304;-47
2023/09/05 07:58:26;;;;;;;9.10;7.30;;;;;;;22.64;71.13;100635.16;112673;1239;238644;-47
2023/09/05 08:00:54;;;;;;;10.60;6.50;;;;;;;22.60;71.59;100630.90;112876;1239;22266;-41
2023/09/05 08:03:21;;;;;;;10.70;6.70;;;;;;;22.67;72.00;100628.83;112713;1249;22457;-48
2023/09/05 08:05:50;;;;;;;9.30;6.60;;;;;;;22.86;71.47;100627.46;112806;1249;22392;-48
2023/09/05 08:08:17;;;;;;;7.60;6.50;;;;;;;22.97;71.02;100617.71;112629;1239;22380;-48
2023/09/05 08:10:44;;;;;;;12.20;7.00;;;;;;;23.04;70.82;100618.46;112589;1238;22333;-48
2023/09/05 08:13:13;;;;;;;9.80;7.40;;;;;;;23.10;70.61;100610.37;112802;1238;22518;-41
2023/09/05 08:15:43;;;;;;;11.50;7.80;;;;;;;23.13;70.07;100612.71;112806;1236;22354;-41
2023/09/05 08:18:11;;;;;;;11.70;7.80;;;;;;;23.07;69.71;100619.00;112780;1239;23310;-47
2023/09/05 08:20:42;;;;;;;12.60;8.00;;;;;;;22.99;69.92;100618.84;112762;1249;22353;-40
2023/09/05 08:23:12;;;;;;;11.60;8.80;;;;;;;23.00;70.08;100613.30;112644;1241;22396;-42
2023/09/05 08:25:50;;;;;;;11.00;8.20;;;;;;;23.09;69.96;100608.81;112531;1249;23158;-40
2023/09/05 08:29:03;;;;;;;11.10;8.10;;;;;;;23.18;69.56;100606.07;112583;1249;22288;-47
2023/09/05 08:31:44;;;;;;;23.70;8.50;;;;;;;23.25;69.29;100602.31;112326;1249;23027;-47
2023/09/05 08:34:59;;;;;;;9.80;7.40;;;;;;;23.41;68.94;100604.06;112641;1249;23441;-40
2023/09/05 08:38:07;;;;;;;12.40;8.10;;;;;;;23.55;68.74;100602.84;112610;1249;22374;-42
2023/09/05 08:41:15;;;;;;;11.50;7.60;;;;;;;23.59;68.03;100601.21;112579;1246;23175;-47
2023/09/05 08:44:12;;;;;;;12.70;8.00;;;;;;;23.62;67.81;100594.52;112446;1249;23066;-47
2023/09/05 08:47:02;;;;;;;11.40;8.10;;;;;;;23.62;67.61;100588.44;112488;1249;22461;-46
2023/09/05 08:50:04;;;;;;;12.40;8.30;;;;;;;23.62;67.71;100580.08;112303;1249;23412;-41
2023/09/05 08:52:47;;;;;;;10.00;7.90;;;;;;;23.77;67.75;100579.20;112606;1249;22397;-43
2023/09/05 08:55:24;;;;;;;13.30;7.40;;;;;;;23.90;66.90;100581.37;112437;1249;22560;-40
2023/09/05 08:57:53;;;;;;;9.80;7.20;;;;;;;23.98;66.43;100578.83;112686;1242;22938;-47
2023/09/05 09:00:22;;;;;;;9.90;7.20;;;;;;;24.09;66.14;100581.30;112521;1249;22496;-41
2023/09/05 09:02:58;;;;;;;10.10;7.30;;;;;;;24.20;65.73;100581.61;112420;1249;22212;-48
2023/09/05 09:05:29;;;;;;;9.70;8.10;;;;;;;24.27;65.50;100584.60;112575;1242;22434;-48
2023/09/05 09:07:56;;;;;;;8.20;7.10;;;;;;;24.32;65.04;100582.08;112654;1249;22800;-48
2023/09/05 09:10:24;;;;;;;14.00;7.40;;;;;;;24.41;64.87;100583.95;112631;1249;23394;-41
2023/09/05 09:12:55;;;;;;;9.20;7.30;;;;;;;24.48;64.63;100580.34;112794;1246;22528;-41
2023/09/05 09:15:49;;;;;;;13.00;8.60;;;;;;;24.50;63.87;100578.80;112434;1249;22488;-46
2023/09/05 09:18:34;;;;;;;13.70;8.10;;;;;;;24.30;63.74;100575.19;112564;1249;22625;-41
2023/09/05 09:21:21;;;;;;;12.00;7.20;;;;;;;24.09;64.53;100576.27;112525;1246;23152;-49
2023/09/05 09:24:11;;;;;;;19.20;9.20;;;;;;;23.96;65.20;100572.70;112719;1249;23264;-47
2023/09/05 09:27:03;;;;;;;11.10;8.30;;;;;;;23.94;65.09;100575.14;112147;1255;22420;-41
2023/09/05 09:29:34;;;;;;;14.10;7.90;;;;;;;23.93;64.84;100574.83;112233;1255;22533;-41
2023/09/05 09:32:05;;;;;;;10.20;7.30;;;;;;;23.99;65.08;100577.89;112092;1255;22493;-41
2023/09/05 09:34:40;;;;;;;9.40;7.60;;;;;;;24.06;65.43;100576.82;112255;1255;22159;-41
2023/09/05 09:37:10;;;;;;;15.80;8.00;;;;;;;24.16;64.73;100574.69;112107;1255;22385;-42
2023/09/05 09:39:37;;;;;;;9.30;7.40;;;;;;;24.22;64.13;100572.81;112215;1255;22622;-40
2023/09/05 09:42:06;;;;;;;8.90;7.40;;;;;;;24.31;64.02;100565.74;112175;1240;23115;-48
2023/09/05 09:44:47;;;;;;;10.30;6.90;;;;;;;24.46;63.35;100573.30;112068;1255;22287;-44
2023/09/05 09:47:16;;;;;;;10.70;7.40;;;;;;;24.54;63.17;100565.02;112240;1255;22393;-40
2023/09/05 09:49:50;;;;;;;12.80;6.70;;;;;;;24.70;63.12;100569.92;112056;1255;22580;-42
2023/09/05 09:52:20;;;;;;;12.70;7.70;;;;;;;24.88;62.47;100571.38;112173;1253;22356;-43
2023/09/05 09:54:47;;;;;;;10.50;6.70;;;;;;;25.01;62.09;100572.64;112234;1255;22390;-49
2023/09/05 09:57:17;;;;;;;10.40;7.50;;;;;;;25.04;61.65;100577.31;112247;1255;23184;-49
2023/09/05 09:59:50;;;;;;;10.50;6.10;;;;;;;24.97;61.63;100574.30;112247;1255;22264;-48
2023/09/05 10:02:17;;;;;;;13.30;7.20;;;;;;;24.93;61.38;100580.23;112272;1255;22309;-50
2023/09/05 10:04:46;;;;;;;8.60;6.40;;;;;;;24.81;61.32;100584.97;112554;1249;22412;-49
2023/09/05 10:07:16;;;;;;;10.80;6.50;;;;;;;24.73;61.17;100581.13;112726;1249;22402;-46
2023/09/05 10:09:44;;;;;;;12.30;6.60;;;;;;;24.76;61.47;100577.95;112646;1249;22877;-41
2023/09/05 10:12:12;;;;;;;8.50;6.30;;;;;;;24.86;61.52;100573.30;112669;1249;22766;-40
2023/09/05 10:14:42;;;;;;;7.30;5.80;;;;;;;24.98;61.16;100572.10;112653;1249;22372;-41
2023/09/05 10:17:21;;;;;;;12.20;7.00;;;;;;;25.13;60.49;100574.84;112734;1249;22477;-41
2023/09/05 10:19:49;;;;;;;7.90;6.10;;;;;;;25.21;59.91;100579.41;112348;1245;22950;-41
2023/09/05 10:22:39;;;;;;;12.40;6.70;;;;;;;25.33;59.37;100580.51;112607;1239;22388;-42
2023/09/05 10:25:14;;;;;;;7.90;6.50;;;;;;;25.29;59.36;100582.34;112476;1242;22350;-42
2023/09/05 10:27:52;;;;;;;13.30;6.40;;;;;;;25.19;59.37;100584.48;112587;1249;22782;-48
2023/09/05 10:30:20;;;;;;;8.90;6.60;;;;;;;25.05;59.49;100587.61;112678;1249;22494;-48
2023/09/05 10:32:53;;;;;;;10.70;6.40;;;;;;;24.86;59.96;100585.97;112669;1238;22730;-48
2023/09/05 10:35:27;;;;;;;10.70;6.60;;;;;;;24.73;60.61;100587.94;112700;1249;23393;-52
2023/09/05 10:38:19;;;;;;;8.40;5.70;;;;;;;24.74;60.37;100585.02;112538;1249;22373;-50
2023/09/05 10:40:46;;;;;;;10.10;6.80;;;;;;;24.89;60.40;100589.52;112747;1238;22294;-48
2023/09/05 10:43:22;;;;;;;11.10;6.50;;;;;;;24.94;60.16;100582.29;112599;1240;23062;-41
2023/09/05 10:45:59;;;;;;;15.30;6.90;;;;;;;25.06;59.77;100582.77;112337;1249;22419;-41
2023/09/05 10:48:45;;;;;;;9.90;6.80;;;;;;;25.10;59.30;100584.33;112727;1249;22646;-42
2023/09/05 10:51:13;;;;;;;12.10;6.40;;;;;;;25.09;59.27;100581.70;112640;1246;22257;-48
2023/09/05 10:53:45;;;;;;;13.20;6.90;;;;;;;25.06;59.31;100581.50;112713;1238;22671;-47
2023/09/05 10:56:38;;;;;;;10.10;6.80;;;;;;;25.15;58.97;100583.27;112777;1249;22401;-48
2023/09/05 10:59:13;;;;;;;8.70;6.60;;;;;;;25.25;58.85;100586.69;112905;1241;22659;-40
2023/09/05 11:02:00;;;;;;;11.00;6.50;;;;;;;25.51;58.67;100590.38;112281;1249;22384;-41
2023/09/05 11:04:31;;;;;;;10.90;7.30;;;;;;;25.64;57.72;100590.67;112592;1249;22313;-48
2023/09/05 11:07:21;;;;;;;16.30;7.30;;;;;;;25.47;57.59;100598.12;112147;1249;22297;-42
2023/09/05 11:09:49;;;;;;;13.80;6.70;;;;;;;25.13;58.27;100595.94;112678;1247;23098;-42
2023/09/05 11:12:18;;;;;;;11.00;6.80;;;;;;;24.89;58.98;100600.60;112561;1249;22375;-42
2023/09/05 11:14:44;;;;;;;10.80;7.10;;;;;;;24.80;59.64;100596.47;112580;1246;22410;-38
2023/09/05 11:17:13;;;;;;;10.30;7.40;;;;;;;24.78;59.95;100592.63;112515;1249;23015;-39
2023/09/05 11:19:45;;;;;;;18.40;8.30;;;;;;;24.73;59.38;100598.61;112503;1249;22834;-38
2023/09/05 11:22:21;;;;;;;8.00;7.20;;;;;;;24.61;59.71;100594.08;112637;1247;22324;-44
2023/09/05 11:24:53;;;;;;;7.70;6.90;;;;;;;24.53;59.77;100604.34;112754;1246;22257;-45
2023/09/05 11:27:25;;;;;;;13.30;7.90;;;;;;;24.41;60.22;100603.14;112280;1249;22533;-44
2023/09/05 11:29:58;;;;;;;12.30;7.00;;;;;;;24.32;60.53;100598.95;112700;1249;22357;-44
2023/09/05 11:32:32;;;;;;;9.10;6.70;;;;;;;24.25;60.87;100597.20;112707;1249;23118;-37
2023/09/05 11:35:00;;;;;;;14.90;7.70;;;;;;;24.19;61.08;100597.36;112704;1239;22307;-37
2023/09/05 11:37:31;;;;;;;12.00;7.30;;;;;;;24.13;61.04;100603.52;112711;1249;22367;-37
2023/09/05 11:40:09;;;;;;;11.20;7.50;;;;;;;24.06;61.02;100603.87;112738;1249;22389;-37
2023/09/05 11:42:37;;;;;;;8.40;7.10;;;;;;;23.98;61.29;100603.77;112640;1249;22947;-44
2023/09/05 11:45:27;;;;;;;23.70;16.50;;;;;;;23.93;61.48;100604.73;112561;1249;23389;-43
2023/09/05 11:47:54;;;;;;;14.80;13.30;;;;;;;23.89;61.62;100600.48;112724;1249;22332;-44
2023/09/05 11:50:22;;;;;;;13.40;11.20;;;;;;;23.88;61.68;100595.87;112828;1243;22902;-43
2023/09/05 11:52:51;;;;;;;17.80;14.40;;;;;;;23.93;61.77;100598.14;112520;1249;22364;-43
2023/09/05 11:55:21;;;;;;;16.50;12.80;;;;;;;23.95;61.61;100593.23;112695;1249;22430;-36
2023/09/05 11:57:55;;;;;;;20.50;16.10;;;;;;;23.92;61.68;100594.11;112754;1249;22371;-44
2023/09/05 12:00:23;;;;;;;32.60;22.70;;;;;;;23.87;61.70;100591.98;112483;1249;22908;-36
2023/09/05 12:02:54;;;;;;;24.80;17.60;;;;;;;23.84;61.63;100587.76;112671;1246;22342;-42
2023/09/05 12:05:21;;;;;;;55.70;37.60;;;;;;;23.79;61.31;100589.60;112669;1245;22975;-38
2023/09/05 12:07:51;;;;;;;48.10;31.80;;;;;;;23.79;61.38;100589.59;112693;1249;22372;-37
2023/09/05 12:10:18;;;;;;;34.90;25.70;;;;;;;23.78;61.18;100582.16;112645;1249;22443;-37
2023/09/05 12:12:56;;;;;;;17.80;12.90;;;;;;;23.80;61.40;100580.27;112466;1245;22379;-38
2023/09/05 12:15:35;;;;;;;12.40;7.70;;;;;;;23.87;61.24;100582.59;112666;1243;22433;-38
2023/09/05 12:18:06;;;;;;;10.20;6.30;;;;;;;23.92;61.15;100580.39;112700;1242;23570;-37
2023/09/05 12:20:33;;;;;;;24.50;17.60;;;;;;;23.98;60.95;100579.74;112709;1249;22925;-37
2023/09/05 12:23:01;;;;;;;21.20;13.90;;;;;;;24.02;60.90;100579.18;112693;1246;22584;-45
2023/09/05 12:25:28;;;;;;;20.60;13.40;;;;;;;24.07;60.97;100575.14;112729;1249;22455;-43
2023/09/05 12:28:17;;;;;;;13.00;8.70;;;;;;;24.15;60.80;100574.21;112788;1242;22604;-44
2023/09/05 12:30:44;;;;;;;14.40;7.50;;;;;;;24.25;60.94;100574.04;112659;1239;22411;-43
2023/09/05 12:33:11;;;;;;;10.50;6.80;;;;;;;24.36;60.80;100567.23;112544;1243;22837;-44
2023/09/05 12:35:38;;;;;;;8.10;6.90;;;;;;;24.46;60.37;100564.58;112700;1249;22866;-38
2023/09/05 12:38:05;;;;;;;10.70;6.30;;;;;;;24.54;59.97;100570.72;112768;1236;22374;-38
2023/09/05 12:40:33;;;;;;;10.20;5.50;;;;;;;24.61;59.92;100567.89;112781;1249;22839;-41
2023/09/05 12:43:00;;;;;;;9.50;5.70;;;;;;;24.61;59.92;100569.45;112803;1239;22757;-43
2023/09/05 12:45:27;;;;;;;8.00;4.90;;;;;;;24.63;59.79;100570.07;112736;1246;22421;-40
2023/09/05 12:47:54;;;;;;;7.00;5.00;;;;;;;24.65;59.92;100567.65;112753;1246;22195;-41
2023/09/05 12:50:32;;;;;;;11.90;5.30;;;;;;;24.65;59.84;100570.89;112755;1239;22440;-47
2023/09/05 12:53:02;;;;;;;12.20;5.70;;;;;;;24.63;59.32;100570.60;112808;1240;23698;-46
2023/09/05 12:55:33;;;;;;;6.80;5.10;;;;;;;24.59;59.30;100567.09;112755;1249;22982;-46
2023/09/05 12:58:03;;;;;;;7.70;5.40;;;;;;;24.58;59.30;100566.98;112817;1240;22329;-46
2023/09/05 13:00:31;;;;;;;9.30;5.20;;;;;;;24.58;59.60;100564.81;112775;1242;22406;-46
2023/09/05 13:02:58;;;;;;;8.90;4.90;;;;;;;24.60;59.67;100569.17;112779;1249;22345;-48
2023/09/05 13:05:27;;;;;;;8.40;4.50;;;;;;;24.60;59.74;100567.95;112830;1244;22415;-47
2023/09/05 13:07:54;;;;;;;7.40;5.00;;;;;;;24.58;59.57;100569.30;112889;1249;22414;-47
2023/09/05 13:10:21;;;;;;;6.70;4.90;;;;;;;24.54;59.29;100570.75;112779;1241;23610;-47
2023/09/05 13:12:50;;;;;;;10.50;5.40;;;;;;;24.50;59.39;100568.11;112873;1236;23232;-47
2023/09/05 13:15:18;;;;;;;7.60;5.10;;;;;;;24.51;59.21;100565.91;112887;1239;22449;-47
2023/09/05 13:17:47;;;;;;;10.20;5.20;;;;;;;24.50;58.76;100569.55;112716;1249;22834;-47
2023/09/05 13:20:15;;;;;;;5.10;4.60;;;;;;;24.49;58.30;100568.70;112779;1239;22532;-41
2023/09/05 13:22:47;;;;;;;10.50;5.10;;;;;;;24.49;58.25;100567.29;112788;1249;22958;-41
2023/09/05 13:25:17;;;;;;;;;;;;;;;24.45;58.24;100572.48;112865;1239;22874;-41
2023/09/05 13:27:44;;;;;;;8.20;4.90;;;;;;;24.46;58.50;100565.11;112879;1238;22402;-39
2023/09/05 13:30:12;;;;;;;5.90;4.70;;;;;;;24.53;58.34;100565.82;112833;1239;22937;-39
2023/09/05 13:32:39;;;;;;;11.90;5.40;;;;;;;24.54;57.73;100563.47;112867;1249;22351;-39
2023/09/05 13:35:08;;;;;;;10.10;5.00;;;;;;;24.53;57.86;100558.70;112882;1239;22463;-41
2023/09/05 13:37:35;;;;;;;5.60;4.40;;;;;;;24.60;58.26;100561.49;112837;1249;22392;-46
2023/09/05 13:40:02;;;;;;;10.60;5.50;;;;;;;24.72;58.06;100560.70;112854;1249;23112;-46
2023/09/05 13:42:29;;;;;;;15.70;5.50;;;;;;;24.79;57.62;100559.44;112867;1249;22933;-46
2023/09/05 13:44:57;;;;;;;6.80;4.60;;;;;;;24.79;57.85;100556.77;112900;1249;22353;-46
2023/09/05 13:47:23;;;;;;;10.50;4.30;;;;;;;24.84;57.63;100548.45;112885;1239;23137;-46
2023/09/05 13:49:50;;;;;;;10.30;5.00;;;;;;;24.95;57.15;100549.23;112854;1237;22248;-46
2023/09/05 13:52:17;;;;;;;5.20;4.60;;;;;;;25.06;57.08;100550.80;112891;1239;22479;-39
2023/09/05 13:54:43;;;;;;;6.70;4.70;;;;;;;25.17;56.54;100549.66;112911;1246;23204;-38
2023/09/05 13:57:10;;;;;;;4.40;3.90;;;;;;;25.27;56.32;100543.73;112913;1236;22432;-45
2023/09/05 13:59:37;;;;;;;7.10;4.60;;;;;;;25.33;56.37;100544.27;112892;1240;22255;-45
2023/09/05 14:02:06;;;;;;;8.90;4.20;;;;;;;25.38;56.18;100546.68;112872;1247;23003;-46
2023/09/05 14:04:32;;;;;;;5.10;4.20;;;;;;;25.44;55.70;100551.29;112888;1249;22351;-46
2023/09/05 14:07:00;;;;;;;6.60;4.70;;;;;;;25.61;55.40;100542.81;112908;1249;23091;-39
2023/09/05 14:09:27;;;;;;;5.70;4.30;;;;;;;25.79;54.65;100543.39;112924;1249;22348;-39
2023/09/05 14:11:54;;;;;;;5.40;4.40;;;;;;;25.82;54.08;100541.08;112920;1249;22246;-39
2023/09/05 14:14:20;;;;;;;4.80;3.90;;;;;;;25.79;53.96;100545.02;112967;1244;22409;-39
2023/09/05 14:16:53;;;;;;;6.70;4.50;;;;;;;25.71;54.21;100547.56;112942;1238;23113;-38
2023/09/05 14:19:20;;;;;;;8.50;4.40;;;;;;;25.82;54.14;100545.39;112969;1249;22353;-38
2023/09/05 14:21:47;;;;;;;8.80;4.50;;;;;;;26.09;52.91;100544.44;112927;1244;22436;-39
